sensor_id;sensor_type;location;lat;lon;timestamp;P1;durP1;ratioP1;P2;durP2;ratioP2
45274;SDS011;31019;43.780;25.948;2022-09-30T00:00:20;50.35;;;46.97;;
45274;SDS011;31019;43.780;25.948;2022-09-30T00:02:47;50.08;;;46.97;;
45274;SDS011;31019;43.780;25.948;2022-09-30T00:05:14;50.50;;;47.20;;
45274;SDS011;31019;43.780;25.948;2022-09-30T00:07:41;55.92;;;52.17;;
45274;SDS011;31019;43.780;25.948;2022-09-30T00:10:08;48.92;;;45.72;;
45274;SDS011;31019;43.780;25.948;2022-09-30T00:12:35;48.05;;;44.85;;
45274;SDS011;31019;43.780;25.948;2022-09-30T00:15:04;60.33;;;56.72;;
45274;SDS011;31019;43.780;25.948;2022-09-30T00:17:32;51.95;;;48.55;;
45274;SDS011;31019;43.780;25.948;2022-09-30T00:19:58;56.03;;;52.00;;
45274;SDS011;31019;43.780;25.948;2022-09-30T00:22:25;54.42;;;50.70;;
45274;SDS011;31019;43.780;25.948;2022-09-30T00:24:52;55.35;;;51.45;;
45274;SDS011;31019;43.780;25.948;2022-09-30T00:27:19;54.08;;;50.15;;
45274;SDS011;31019;43.780;25.948;2022-09-30T00:29:46;52.03;;;48.40;;
45274;SDS011;31019;43.780;25.948;2022-09-30T00:32:16;52.80;;;49.05;;
45274;SDS011;31019;43.780;25.948;2022-09-30T00:34:42;46.08;;;42.80;;
45274;SDS011;31019;43.780;25.948;2022-09-30T00:37:09;47.10;;;43.58;;
45274;SDS011;31019;43.780;25.948;2022-09-30T00:39:39;46.78;;;43.47;;
45274;SDS011;31019;43.780;25.948;2022-09-30T00:42:09;44.15;;;41.28;;
45274;SDS011;31019;43.780;25.948;2022-09-30T00:44:48;47.03;;;43.67;;
45274;SDS011;31019;43.780;25.948;2022-09-30T00:52:59;50.25;;;46.72;;
45274;SDS011;31019;43.780;25.948;2022-09-30T00:55:35;49.38;;;46.08;;
45274;SDS011;31019;43.780;25.948;2022-09-30T00:58:10;54.22;;;50.53;;
45274;SDS011;31019;43.780;25.948;2022-09-30T01:00:42;53.63;;;49.53;;
45274;SDS011;31019;43.780;25.948;2022-09-30T01:03:11;51.15;;;47.55;;
45274;SDS011;31019;43.780;25.948;2022-09-30T01:05:38;51.40;;;47.95;;
45274;SDS011;31019;43.780;25.948;2022-09-30T01:08:05;49.25;;;45.85;;
45274;SDS011;31019;43.780;25.948;2022-09-30T01:10:34;46.83;;;43.35;;
45274;SDS011;31019;43.780;25.948;2022-09-30T01:13:01;51.80;;;48.03;;
45274;SDS011;31019;43.780;25.948;2022-09-30T01:15:33;43.20;;;40.20;;
45274;SDS011;31019;43.780;25.948;2022-09-30T01:18:37;44.60;;;41.33;;
45274;SDS011;31019;43.780;25.948;2022-09-30T01:24:29;46.25;;;42.83;;
45274;SDS011;31019;43.780;25.948;2022-09-30T01:30:08;54.63;;;50.90;;
45274;SDS011;31019;43.780;25.948;2022-09-30T01:35:46;49.20;;;45.90;;
45274;SDS011;31019;43.780;25.948;2022-09-30T01:38:35;50.25;;;46.95;;
45274;SDS011;31019;43.780;25.948;2022-09-30T01:41:13;48.55;;;45.10;;
45274;SDS011;31019;43.780;25.948;2022-09-30T01:43:51;46.83;;;43.67;;
45274;SDS011;31019;43.780;25.948;2022-09-30T01:46:29;46.92;;;43.80;;
45274;SDS011;31019;43.780;25.948;2022-09-30T01:49:03;48.67;;;45.47;;
45274;SDS011;31019;43.780;25.948;2022-09-30T01:51:38;45.92;;;42.80;;
45274;SDS011;31019;43.780;25.948;2022-09-30T01:54:10;47.03;;;43.58;;
45274;SDS011;31019;43.780;25.948;2022-09-30T01:56:43;57.10;;;53.08;;
45274;SDS011;31019;43.780;25.948;2022-09-30T01:59:14;52.05;;;48.25;;
45274;SDS011;31019;43.780;25.948;2022-09-30T02:01:48;52.72;;;48.97;;
45274;SDS011;31019;43.780;25.948;2022-09-30T02:04:19;48.75;;;45.35;;
45274;SDS011;31019;43.780;25.948;2022-09-30T02:06:53;62.05;;;57.97;;
45274;SDS011;31019;43.780;25.948;2022-09-30T02:09:24;55.50;;;51.55;;
45274;SDS011;31019;43.780;25.948;2022-09-30T02:11:54;68.10;;;63.90;;
45274;SDS011;31019;43.780;25.948;2022-09-30T02:14:29;50.00;;;46.55;;
45274;SDS011;31019;43.780;25.948;2022-09-30T02:17:03;57.75;;;53.35;;
45274;SDS011;31019;43.780;25.948;2022-09-30T02:19:36;50.28;;;46.53;;
45274;SDS011;31019;43.780;25.948;2022-09-30T02:22:09;57.28;;;53.22;;
45274;SDS011;31019;43.780;25.948;2022-09-30T02:24:40;45.35;;;42.15;;
45274;SDS011;31019;43.780;25.948;2022-09-30T02:27:12;42.53;;;39.53;;
45274;SDS011;31019;43.780;25.948;2022-09-30T02:29:44;45.75;;;41.75;;
45274;SDS011;31019;43.780;25.948;2022-09-30T02:32:17;43.50;;;39.83;;
45274;SDS011;31019;43.780;25.948;2022-09-30T02:34:49;44.08;;;40.80;;
45274;SDS011;31019;43.780;25.948;2022-09-30T02:37:20;45.65;;;42.20;;
45274;SDS011;31019;43.780;25.948;2022-09-30T02:39:53;47.80;;;44.67;;
45274;SDS011;31019;43.780;25.948;2022-09-30T02:42:26;51.50;;;48.13;;
45274;SDS011;31019;43.780;25.948;2022-09-30T02:44:56;47.80;;;44.47;;
45274;SDS011;31019;43.780;25.948;2022-09-30T02:47:27;47.95;;;44.95;;
45274;SDS011;31019;43.780;25.948;2022-09-30T02:50:00;48.55;;;45.15;;
45274;SDS011;31019;43.780;25.948;2022-09-30T02:52:35;51.20;;;47.90;;
45274;SDS011;31019;43.780;25.948;2022-09-30T02:55:13;53.80;;;50.22;;
45274;SDS011;31019;43.780;25.948;2022-09-30T02:57:49;40.42;;;37.63;;
45274;SDS011;31019;43.780;25.948;2022-09-30T03:00:23;42.97;;;39.85;;
45274;SDS011;31019;43.780;25.948;2022-09-30T03:02:50;44.40;;;41.15;;
45274;SDS011;31019;43.780;25.948;2022-09-30T03:05:22;44.83;;;41.83;;
45274;SDS011;31019;43.780;25.948;2022-09-30T03:07:51;40.95;;;37.80;;
45274;SDS011;31019;43.780;25.948;2022-09-30T03:10:18;40.97;;;37.83;;
45274;SDS011;31019;43.780;25.948;2022-09-30T03:12:50;51.28;;;47.35;;
45274;SDS011;31019;43.780;25.948;2022-09-30T03:15:34;48.80;;;45.30;;
45274;SDS011;31019;43.780;25.948;2022-09-30T03:18:19;46.08;;;42.90;;
45274;SDS011;31019;43.780;25.948;2022-09-30T03:21:03;47.42;;;43.83;;
45274;SDS011;31019;43.780;25.948;2022-09-30T03:26:42;50.92;;;47.53;;
45274;SDS011;31019;43.780;25.948;2022-09-30T03:29:18;44.85;;;41.35;;
45274;SDS011;31019;43.780;25.948;2022-09-30T03:31:53;51.28;;;47.63;;
45274;SDS011;31019;43.780;25.948;2022-09-30T03:34:32;48.22;;;44.80;;
45274;SDS011;31019;43.780;25.948;2022-09-30T03:37:06;48.58;;;44.97;;
45274;SDS011;31019;43.780;25.948;2022-09-30T03:39:45;45.33;;;41.75;;
45274;SDS011;31019;43.780;25.948;2022-09-30T03:42:23;55.38;;;51.67;;
45274;SDS011;31019;43.780;25.948;2022-09-30T03:44:56;51.17;;;47.15;;
45274;SDS011;31019;43.780;25.948;2022-09-30T03:47:30;44.38;;;41.05;;
45274;SDS011;31019;43.780;25.948;2022-09-30T03:50:04;43.92;;;40.92;;
45274;SDS011;31019;43.780;25.948;2022-09-30T03:52:33;46.72;;;43.53;;
45274;SDS011;31019;43.780;25.948;2022-09-30T03:55:02;65.90;;;61.65;;
45274;SDS011;31019;43.780;25.948;2022-09-30T03:57:33;44.03;;;41.03;;
45274;SDS011;31019;43.780;25.948;2022-09-30T04:00:00;45.72;;;42.63;;
45274;SDS011;31019;43.780;25.948;2022-09-30T04:02:27;39.35;;;36.55;;
45274;SDS011;31019;43.780;25.948;2022-09-30T04:04:54;43.40;;;40.25;;
45274;SDS011;31019;43.780;25.948;2022-09-30T04:07:21;39.40;;;36.60;;
45274;SDS011;31019;43.780;25.948;2022-09-30T04:09:48;36.22;;;33.63;;
45274;SDS011;31019;43.780;25.948;2022-09-30T04:12:15;42.22;;;38.97;;
45274;SDS011;31019;43.780;25.948;2022-09-30T04:14:43;38.75;;;35.60;;
45274;SDS011;31019;43.780;25.948;2022-09-30T04:17:10;37.08;;;34.47;;
45274;SDS011;31019;43.780;25.948;2022-09-30T04:19:37;40.30;;;37.30;;
45274;SDS011;31019;43.780;25.948;2022-09-30T04:22:04;41.70;;;39.20;;
45274;SDS011;31019;43.780;25.948;2022-09-30T04:24:31;38.00;;;35.20;;
45274;SDS011;31019;43.780;25.948;2022-09-30T04:26:58;39.00;;;35.88;;
45274;SDS011;31019;43.780;25.948;2022-09-30T04:29:26;37.70;;;35.00;;
45274;SDS011;31019;43.780;25.948;2022-09-30T04:31:54;36.75;;;34.10;;
45274;SDS011;31019;43.780;25.948;2022-09-30T04:34:21;36.38;;;33.53;;
45274;SDS011;31019;43.780;25.948;2022-09-30T04:36:48;38.05;;;35.35;;
45274;SDS011;31019;43.780;25.948;2022-09-30T04:39:15;36.88;;;34.17;;
45274;SDS011;31019;43.780;25.948;2022-09-30T04:41:42;37.45;;;34.25;;
45274;SDS011;31019;43.780;25.948;2022-09-30T04:44:08;39.40;;;36.38;;
45274;SDS011;31019;43.780;25.948;2022-09-30T04:46:36;41.88;;;38.55;;
45274;SDS011;31019;43.780;25.948;2022-09-30T04:49:05;41.58;;;38.58;;
45274;SDS011;31019;43.780;25.948;2022-09-30T04:51:32;43.20;;;39.80;;
45274;SDS011;31019;43.780;25.948;2022-09-30T04:54:00;42.97;;;39.72;;
45274;SDS011;31019;43.780;25.948;2022-09-30T04:56:26;41.65;;;38.65;;
45274;SDS011;31019;43.780;25.948;2022-09-30T04:58:54;43.42;;;40.72;;
45274;SDS011;31019;43.780;25.948;2022-09-30T05:01:21;41.55;;;38.42;;
45274;SDS011;31019;43.780;25.948;2022-09-30T05:03:48;43.40;;;40.50;;
45274;SDS011;31019;43.780;25.948;2022-09-30T05:06:16;42.85;;;40.00;;
45274;SDS011;31019;43.780;25.948;2022-09-30T05:08:46;46.75;;;43.83;;
45274;SDS011;31019;43.780;25.948;2022-09-30T05:11:14;48.45;;;45.47;;
45274;SDS011;31019;43.780;25.948;2022-09-30T05:13:43;46.38;;;43.15;;
45274;SDS011;31019;43.780;25.948;2022-09-30T05:16:11;46.65;;;43.08;;
45274;SDS011;31019;43.780;25.948;2022-09-30T05:18:39;48.00;;;44.70;;
45274;SDS011;31019;43.780;25.948;2022-09-30T05:21:09;45.97;;;42.58;;
45274;SDS011;31019;43.780;25.948;2022-09-30T05:23:38;47.85;;;44.53;;
45274;SDS011;31019;43.780;25.948;2022-09-30T05:26:06;53.05;;;49.72;;
45274;SDS011;31019;43.780;25.948;2022-09-30T05:28:33;47.25;;;43.53;;
45274;SDS011;31019;43.780;25.948;2022-09-30T05:31:01;51.00;;;47.70;;
45274;SDS011;31019;43.780;25.948;2022-09-30T05:33:30;54.15;;;50.85;;
45274;SDS011;31019;43.780;25.948;2022-09-30T05:35:59;51.42;;;48.20;;
45274;SDS011;31019;43.780;25.948;2022-09-30T05:38:28;52.30;;;48.70;;
45274;SDS011;31019;43.780;25.948;2022-09-30T05:40:56;54.05;;;50.05;;
45274;SDS011;31019;43.780;25.948;2022-09-30T05:43:23;49.45;;;46.13;;
45274;SDS011;31019;43.780;25.948;2022-09-30T05:45:51;48.45;;;44.80;;
45274;SDS011;31019;43.780;25.948;2022-09-30T05:48:18;53.75;;;49.90;;
45274;SDS011;31019;43.780;25.948;2022-09-30T05:50:45;58.55;;;55.25;;
45274;SDS011;31019;43.780;25.948;2022-09-30T05:53:15;56.28;;;52.80;;
45274;SDS011;31019;43.780;25.948;2022-09-30T05:55:46;64.03;;;56.05;;
45274;SDS011;31019;43.780;25.948;2022-09-30T05:58:16;51.15;;;48.15;;
45274;SDS011;31019;43.780;25.948;2022-09-30T06:00:43;46.72;;;43.72;;
45274;SDS011;31019;43.780;25.948;2022-09-30T06:03:11;48.35;;;45.03;;
45274;SDS011;31019;43.780;25.948;2022-09-30T06:05:39;48.90;;;45.92;;
45274;SDS011;31019;43.780;25.948;2022-09-30T06:08:06;42.88;;;40.28;;
45274;SDS011;31019;43.780;25.948;2022-09-30T06:10:38;47.10;;;44.30;;
45274;SDS011;31019;43.780;25.948;2022-09-30T06:13:06;44.60;;;41.85;;
45274;SDS011;31019;43.780;25.948;2022-09-30T06:15:34;42.95;;;40.00;;
45274;SDS011;31019;43.780;25.948;2022-09-30T06:18:03;40.17;;;37.55;;
45274;SDS011;31019;43.780;25.948;2022-09-30T06:20:30;42.15;;;39.58;;
45274;SDS011;31019;43.780;25.948;2022-09-30T06:23:00;40.25;;;37.55;;
45274;SDS011;31019;43.780;25.948;2022-09-30T06:25:28;38.72;;;36.63;;
45274;SDS011;31019;43.780;25.948;2022-09-30T06:27:56;38.22;;;36.10;;
45274;SDS011;31019;43.780;25.948;2022-09-30T06:30:23;35.30;;;33.20;;
45274;SDS011;31019;43.780;25.948;2022-09-30T06:32:52;35.60;;;33.50;;
45274;SDS011;31019;43.780;25.948;2022-09-30T06:35:22;38.05;;;35.72;;
45274;SDS011;31019;43.780;25.948;2022-09-30T06:37:53;37.83;;;35.42;;
45274;SDS011;31019;43.780;25.948;2022-09-30T06:40:20;40.88;;;38.38;;
45274;SDS011;31019;43.780;25.948;2022-09-30T06:42:47;47.80;;;45.13;;
45274;SDS011;31019;43.780;25.948;2022-09-30T06:45:15;41.95;;;39.65;;
45274;SDS011;31019;43.780;25.948;2022-09-30T06:47:44;38.47;;;36.03;;
45274;SDS011;31019;43.780;25.948;2022-09-30T06:50:13;41.42;;;39.15;;
45274;SDS011;31019;43.780;25.948;2022-09-30T06:52:40;36.83;;;34.88;;
45274;SDS011;31019;43.780;25.948;2022-09-30T06:55:08;37.08;;;35.03;;
45274;SDS011;31019;43.780;25.948;2022-09-30T06:57:35;37.47;;;34.95;;
45274;SDS011;31019;43.780;25.948;2022-09-30T07:00:02;38.25;;;35.80;;
45274;SDS011;31019;43.780;25.948;2022-09-30T07:02:30;37.55;;;35.65;;
45274;SDS011;31019;43.780;25.948;2022-09-30T07:04:58;36.50;;;34.50;;
45274;SDS011;31019;43.780;25.948;2022-09-30T07:07:27;35.95;;;33.80;;
45274;SDS011;31019;43.780;25.948;2022-09-30T07:09:54;37.40;;;35.08;;
45274;SDS011;31019;43.780;25.948;2022-09-30T07:12:20;37.30;;;34.97;;
45274;SDS011;31019;43.780;25.948;2022-09-30T07:14:47;37.65;;;35.45;;
45274;SDS011;31019;43.780;25.948;2022-09-30T07:17:15;36.95;;;34.40;;
45274;SDS011;31019;43.780;25.948;2022-09-30T07:19:42;38.28;;;36.00;;
45274;SDS011;31019;43.780;25.948;2022-09-30T07:22:09;37.08;;;34.50;;
45274;SDS011;31019;43.780;25.948;2022-09-30T07:25:01;39.38;;;36.78;;
45274;SDS011;31019;43.780;25.948;2022-09-30T07:27:30;41.28;;;39.17;;
45274;SDS011;31019;43.780;25.948;2022-09-30T07:29:58;39.38;;;37.00;;
45274;SDS011;31019;43.780;25.948;2022-09-30T07:32:26;38.75;;;36.65;;
45274;SDS011;31019;43.780;25.948;2022-09-30T07:34:53;36.25;;;34.17;;
45274;SDS011;31019;43.780;25.948;2022-09-30T07:37:20;36.22;;;34.28;;
45274;SDS011;31019;43.780;25.948;2022-09-30T07:39:50;40.05;;;36.75;;
45274;SDS011;31019;43.780;25.948;2022-09-30T07:42:19;51.92;;;46.63;;
45274;SDS011;31019;43.780;25.948;2022-09-30T07:44:46;116.18;;;72.28;;
45274;SDS011;31019;43.780;25.948;2022-09-30T07:47:14;40.75;;;37.20;;
45274;SDS011;31019;43.780;25.948;2022-09-30T07:49:41;45.53;;;41.35;;
45274;SDS011;31019;43.780;25.948;2022-09-30T07:52:09;43.40;;;39.38;;
45274;SDS011;31019;43.780;25.948;2022-09-30T07:54:36;34.17;;;31.90;;
45274;SDS011;31019;43.780;25.948;2022-09-30T07:57:05;36.22;;;33.42;;
45274;SDS011;31019;43.780;25.948;2022-09-30T07:59:35;35.03;;;32.30;;
45274;SDS011;31019;43.780;25.948;2022-09-30T08:02:04;33.60;;;31.45;;
45274;SDS011;31019;43.780;25.948;2022-09-30T08:04:32;35.58;;;33.13;;
45274;SDS011;31019;43.780;25.948;2022-09-30T08:06:59;35.33;;;32.78;;
45274;SDS011;31019;43.780;25.948;2022-09-30T08:09:27;34.38;;;31.98;;
45274;SDS011;31019;43.780;25.948;2022-09-30T08:11:55;33.80;;;31.77;;
45274;SDS011;31019;43.780;25.948;2022-09-30T08:14:22;34.47;;;32.25;;
45274;SDS011;31019;43.780;25.948;2022-09-30T08:16:52;37.67;;;35.45;;
45274;SDS011;31019;43.780;25.948;2022-09-30T08:19:21;36.30;;;34.30;;
45274;SDS011;31019;43.780;25.948;2022-09-30T08:21:49;33.75;;;32.08;;
45274;SDS011;31019;43.780;25.948;2022-09-30T08:24:19;35.40;;;33.53;;
45274;SDS011;31019;43.780;25.948;2022-09-30T08:26:46;34.17;;;32.13;;
45274;SDS011;31019;43.780;25.948;2022-09-30T08:29:13;32.47;;;30.52;;
45274;SDS011;31019;43.780;25.948;2022-09-30T08:31:40;35.72;;;33.42;;
45274;SDS011;31019;43.780;25.948;2022-09-30T08:34:08;36.25;;;34.03;;
45274;SDS011;31019;43.780;25.948;2022-09-30T08:36:35;35.05;;;32.95;;
45274;SDS011;31019;43.780;25.948;2022-09-30T08:39:02;33.92;;;31.67;;
45274;SDS011;31019;43.780;25.948;2022-09-30T08:41:48;39.33;;;37.22;;
45274;SDS011;31019;43.780;25.948;2022-09-30T08:44:30;41.15;;;38.67;;
45274;SDS011;31019;43.780;25.948;2022-09-30T08:47:09;40.92;;;38.72;;
45274;SDS011;31019;43.780;25.948;2022-09-30T08:49:52;36.47;;;34.47;;
45274;SDS011;31019;43.780;25.948;2022-09-30T08:52:27;35.95;;;33.95;;
45274;SDS011;31019;43.780;25.948;2022-09-30T08:54:57;39.75;;;37.20;;
45274;SDS011;31019;43.780;25.948;2022-09-30T08:57:25;35.47;;;33.47;;
45274;SDS011;31019;43.780;25.948;2022-09-30T09:00:00;36.55;;;34.45;;
45274;SDS011;31019;43.780;25.948;2022-09-30T09:02:36;37.50;;;35.40;;
45274;SDS011;31019;43.780;25.948;2022-09-30T09:05:13;35.33;;;33.08;;
45274;SDS011;31019;43.780;25.948;2022-09-30T09:07:48;34.25;;;32.38;;
45274;SDS011;31019;43.780;25.948;2022-09-30T09:10:26;35.65;;;33.38;;
45274;SDS011;31019;43.780;25.948;2022-09-30T09:13:04;35.10;;;33.25;;
45274;SDS011;31019;43.780;25.948;2022-09-30T09:15:44;33.42;;;31.40;;
45274;SDS011;31019;43.780;25.948;2022-09-30T09:21:20;35.60;;;33.60;;
45274;SDS011;31019;43.780;25.948;2022-09-30T09:23:49;36.90;;;34.80;;
45274;SDS011;31019;43.780;25.948;2022-09-30T09:26:18;37.20;;;34.95;;
45274;SDS011;31019;43.780;25.948;2022-09-30T09:28:48;37.80;;;35.90;;
45274;SDS011;31019;43.780;25.948;2022-09-30T09:31:25;34.60;;;32.60;;
45274;SDS011;31019;43.780;25.948;2022-09-30T09:33:52;36.03;;;34.22;;
45274;SDS011;31019;43.780;25.948;2022-09-30T09:36:31;35.88;;;33.83;;
45274;SDS011;31019;43.780;25.948;2022-09-30T09:41:49;36.00;;;33.80;;
45274;SDS011;31019;43.780;25.948;2022-09-30T09:44:26;35.88;;;33.97;;
45274;SDS011;31019;43.780;25.948;2022-09-30T09:46:59;37.28;;;35.17;;
45274;SDS011;31019;43.780;25.948;2022-09-30T09:49:32;37.63;;;35.50;;
45274;SDS011;31019;43.780;25.948;2022-09-30T09:55:00;34.38;;;32.58;;
45274;SDS011;31019;43.780;25.948;2022-09-30T09:57:28;34.85;;;32.97;;
45274;SDS011;31019;43.780;25.948;2022-09-30T09:59:57;38.03;;;35.83;;
45274;SDS011;31019;43.780;25.948;2022-09-30T10:02:45;37.45;;;35.38;;
45274;SDS011;31019;43.780;25.948;2022-09-30T10:05:25;35.25;;;33.40;;
45274;SDS011;31019;43.780;25.948;2022-09-30T10:08:06;40.63;;;38.25;;
45274;SDS011;31019;43.780;25.948;2022-09-30T10:10:40;34.80;;;32.88;;
45274;SDS011;31019;43.780;25.948;2022-09-30T10:13:14;37.25;;;35.25;;
45274;SDS011;31019;43.780;25.948;2022-09-30T10:15:46;40.95;;;38.50;;
45274;SDS011;31019;43.780;25.948;2022-09-30T10:18:18;37.83;;;35.92;;
45274;SDS011;31019;43.780;25.948;2022-09-30T10:20:49;37.05;;;34.90;;
45274;SDS011;31019;43.780;25.948;2022-09-30T10:23:21;38.53;;;36.42;;
45274;SDS011;31019;43.780;25.948;2022-09-30T10:25:54;38.38;;;36.22;;
45274;SDS011;31019;43.780;25.948;2022-09-30T10:28:24;36.55;;;34.15;;
45274;SDS011;31019;43.780;25.948;2022-09-30T10:30:56;37.75;;;35.40;;
45274;SDS011;31019;43.780;25.948;2022-09-30T10:33:27;42.55;;;40.35;;
45274;SDS011;31019;43.780;25.948;2022-09-30T10:36:04;40.90;;;38.80;;
45274;SDS011;31019;43.780;25.948;2022-09-30T10:38:36;42.40;;;40.00;;
45274;SDS011;31019;43.780;25.948;2022-09-30T10:41:11;38.85;;;36.75;;
45274;SDS011;31019;43.780;25.948;2022-09-30T10:43:40;43.42;;;40.92;;
45274;SDS011;31019;43.780;25.948;2022-09-30T10:46:08;39.83;;;37.67;;
45274;SDS011;31019;43.780;25.948;2022-09-30T10:48:36;37.33;;;35.22;;
45274;SDS011;31019;43.780;25.948;2022-09-30T10:51:04;37.38;;;34.97;;
45274;SDS011;31019;43.780;25.948;2022-09-30T10:53:46;41.30;;;38.90;;
45274;SDS011;31019;43.780;25.948;2022-09-30T10:56:13;37.58;;;35.17;;
45274;SDS011;31019;43.780;25.948;2022-09-30T10:58:58;45.40;;;42.55;;
45274;SDS011;31019;43.780;25.948;2022-09-30T11:01:29;43.72;;;41.53;;
45274;SDS011;31019;43.780;25.948;2022-09-30T11:04:01;40.25;;;37.88;;
45274;SDS011;31019;43.780;25.948;2022-09-30T11:06:37;37.60;;;35.60;;
45274;SDS011;31019;43.780;25.948;2022-09-30T11:09:08;39.80;;;37.60;;
45274;SDS011;31019;43.780;25.948;2022-09-30T11:11:40;35.08;;;33.08;;
45274;SDS011;31019;43.780;25.948;2022-09-30T11:14:15;33.45;;;31.55;;
45274;SDS011;31019;43.780;25.948;2022-09-30T11:16:51;35.90;;;33.80;;
45274;SDS011;31019;43.780;25.948;2022-09-30T11:19:27;35.35;;;33.30;;
45274;SDS011;31019;43.780;25.948;2022-09-30T11:21:58;38.58;;;36.45;;
45274;SDS011;31019;43.780;25.948;2022-09-30T11:24:33;35.92;;;33.70;;
45274;SDS011;31019;43.780;25.948;2022-09-30T11:27:05;37.03;;;34.95;;
45274;SDS011;31019;43.780;25.948;2022-09-30T11:29:44;37.38;;;35.08;;
45274;SDS011;31019;43.780;25.948;2022-09-30T11:32:22;35.80;;;33.78;;
45274;SDS011;31019;43.780;25.948;2022-09-30T11:35:00;32.80;;;31.00;;
45274;SDS011;31019;43.780;25.948;2022-09-30T11:37:37;33.47;;;31.38;;
45274;SDS011;31019;43.780;25.948;2022-09-30T11:40:22;33.35;;;31.48;;
45274;SDS011;31019;43.780;25.948;2022-09-30T11:42:55;37.67;;;35.47;;
45274;SDS011;31019;43.780;25.948;2022-09-30T11:45:30;35.75;;;33.85;;
45274;SDS011;31019;43.780;25.948;2022-09-30T11:48:16;34.05;;;32.15;;
45274;SDS011;31019;43.780;25.948;2022-09-30T11:50:54;35.75;;;33.75;;
45274;SDS011;31019;43.780;25.948;2022-09-30T11:53:33;35.92;;;33.80;;
45274;SDS011;31019;43.780;25.948;2022-09-30T11:56:14;36.63;;;34.60;;
45274;SDS011;31019;43.780;25.948;2022-09-30T11:58:52;34.28;;;32.35;;
45274;SDS011;31019;43.780;25.948;2022-09-30T12:01:25;35.17;;;33.20;;
45274;SDS011;31019;43.780;25.948;2022-09-30T12:03:58;36.25;;;34.15;;
45274;SDS011;31019;43.780;25.948;2022-09-30T12:06:30;36.95;;;34.95;;
45274;SDS011;31019;43.780;25.948;2022-09-30T12:09:02;34.45;;;32.55;;
45274;SDS011;31019;43.780;25.948;2022-09-30T12:11:39;34.42;;;31.92;;
45274;SDS011;31019;43.780;25.948;2022-09-30T12:14:15;32.30;;;30.30;;
45274;SDS011;31019;43.780;25.948;2022-09-30T12:19:16;32.50;;;30.50;;
45274;SDS011;31019;43.780;25.948;2022-09-30T12:21:49;31.95;;;30.08;;
45274;SDS011;31019;43.780;25.948;2022-09-30T12:24:23;33.95;;;31.90;;
45274;SDS011;31019;43.780;25.948;2022-09-30T12:26:56;33.40;;;31.52;;
45274;SDS011;31019;43.780;25.948;2022-09-30T12:29:24;30.33;;;28.52;;
45274;SDS011;31019;43.780;25.948;2022-09-30T12:32:20;34.60;;;32.50;;
45274;SDS011;31019;43.780;25.948;2022-09-30T12:35:07;33.20;;;31.23;;
45274;SDS011;31019;43.780;25.948;2022-09-30T12:37:52;34.42;;;32.10;;
45274;SDS011;31019;43.780;25.948;2022-09-30T12:40:38;33.58;;;31.55;;
45274;SDS011;31019;43.780;25.948;2022-09-30T12:46:15;35.38;;;33.38;;
45274;SDS011;31019;43.780;25.948;2022-09-30T12:48:48;36.22;;;33.85;;
45274;SDS011;31019;43.780;25.948;2022-09-30T12:51:20;33.63;;;31.60;;
45274;SDS011;31019;43.780;25.948;2022-09-30T12:53:52;34.42;;;31.92;;
45274;SDS011;31019;43.780;25.948;2022-09-30T12:56:28;33.30;;;30.98;;
45274;SDS011;31019;43.780;25.948;2022-09-30T12:58:57;34.42;;;32.08;;
45274;SDS011;31019;43.780;25.948;2022-09-30T13:01:26;31.58;;;29.58;;
45274;SDS011;31019;43.780;25.948;2022-09-30T13:04:14;33.97;;;31.77;;
45274;SDS011;31019;43.780;25.948;2022-09-30T13:09:59;32.58;;;30.58;;
45274;SDS011;31019;43.780;25.948;2022-09-30T13:12:41;34.35;;;31.27;;
45274;SDS011;31019;43.780;25.948;2022-09-30T13:21:17;32.03;;;29.90;;
45274;SDS011;31019;43.780;25.948;2022-09-30T13:23:46;31.67;;;29.58;;
45274;SDS011;31019;43.780;25.948;2022-09-30T13:26:33;34.30;;;31.92;;
45274;SDS011;31019;43.780;25.948;2022-09-30T13:32:28;36.90;;;34.60;;
45274;SDS011;31019;43.780;25.948;2022-09-30T13:35:01;37.08;;;34.78;;
45274;SDS011;31019;43.780;25.948;2022-09-30T13:38:04;40.42;;;38.03;;
45274;SDS011;31019;43.780;25.948;2022-09-30T13:40:42;33.85;;;31.55;;
45274;SDS011;31019;43.780;25.948;2022-09-30T13:43:13;32.50;;;30.03;;
45274;SDS011;31019;43.780;25.948;2022-09-30T13:45:46;34.60;;;32.50;;
45274;SDS011;31019;43.780;25.948;2022-09-30T13:50:48;32.60;;;30.70;;
45274;SDS011;31019;43.780;25.948;2022-09-30T13:53:21;34.88;;;32.47;;
45274;SDS011;31019;43.780;25.948;2022-09-30T13:55:53;32.72;;;30.75;;
45274;SDS011;31019;43.780;25.948;2022-09-30T14:01:35;33.17;;;30.98;;
45274;SDS011;31019;43.780;25.948;2022-09-30T14:07:15;33.30;;;31.20;;
45274;SDS011;31019;43.780;25.948;2022-09-30T14:09:56;35.45;;;33.33;;
45274;SDS011;31019;43.780;25.948;2022-09-30T14:12:41;34.95;;;32.75;;
45274;SDS011;31019;43.780;25.948;2022-09-30T14:21:34;32.70;;;30.55;;
45274;SDS011;31019;43.780;25.948;2022-09-30T14:24:08;33.72;;;31.63;;
45274;SDS011;31019;43.780;25.948;2022-09-30T14:26:47;35.60;;;33.40;;
45274;SDS011;31019;43.780;25.948;2022-09-30T14:29:23;39.45;;;36.95;;
45274;SDS011;31019;43.780;25.948;2022-09-30T14:31:58;32.67;;;30.67;;
45274;SDS011;31019;43.780;25.948;2022-09-30T14:34:26;34.88;;;32.67;;
45274;SDS011;31019;43.780;25.948;2022-09-30T14:36:57;34.38;;;32.28;;
45274;SDS011;31019;43.780;25.948;2022-09-30T14:39:25;34.65;;;32.35;;
45274;SDS011;31019;43.780;25.948;2022-09-30T14:41:58;35.78;;;33.58;;
45274;SDS011;31019;43.780;25.948;2022-09-30T14:44:28;33.92;;;31.73;;
45274;SDS011;31019;43.780;25.948;2022-09-30T14:47:00;32.97;;;30.65;;
45274;SDS011;31019;43.780;25.948;2022-09-30T14:49:30;31.48;;;29.45;;
45274;SDS011;31019;43.780;25.948;2022-09-30T14:52:00;30.73;;;28.52;;
45274;SDS011;31019;43.780;25.948;2022-09-30T14:54:28;33.60;;;31.42;;
45274;SDS011;31019;43.780;25.948;2022-09-30T14:56:58;31.83;;;29.73;;
45274;SDS011;31019;43.780;25.948;2022-09-30T14:59:27;33.90;;;31.63;;
45274;SDS011;31019;43.780;25.948;2022-09-30T15:01:56;34.72;;;32.15;;
45274;SDS011;31019;43.780;25.948;2022-09-30T15:04:26;40.50;;;38.10;;
45274;SDS011;31019;43.780;25.948;2022-09-30T15:06:55;37.42;;;35.10;;
45274;SDS011;31019;43.780;25.948;2022-09-30T15:09:26;33.45;;;31.25;;
45274;SDS011;31019;43.780;25.948;2022-09-30T15:11:55;35.30;;;32.90;;
45274;SDS011;31019;43.780;25.948;2022-09-30T15:14:24;38.25;;;35.75;;
45274;SDS011;31019;43.780;25.948;2022-09-30T15:16:52;33.20;;;31.00;;
45274;SDS011;31019;43.780;25.948;2022-09-30T15:19:20;37.05;;;34.88;;
45274;SDS011;31019;43.780;25.948;2022-09-30T15:21:49;38.63;;;36.13;;
45274;SDS011;31019;43.780;25.948;2022-09-30T15:24:18;35.80;;;33.63;;
45274;SDS011;31019;43.780;25.948;2022-09-30T15:26:46;36.30;;;34.17;;
45274;SDS011;31019;43.780;25.948;2022-09-30T15:29:14;33.00;;;30.70;;
45274;SDS011;31019;43.780;25.948;2022-09-30T15:31:44;35.90;;;33.50;;
45274;SDS011;31019;43.780;25.948;2022-09-30T15:34:13;33.92;;;31.73;;